sensor_id;sensor_type;location;lat;lon;timestamp;pressure;altitude;pressure_sealevel;temperature;humidity
49473;BME280;67434;50.956;6.918;2023-10-09T00:00:24;101640.50;;;15.94;97.17
49473;BME280;67434;50.956;6.918;2023-10-09T00:03:04;101631.25;;;15.95;97.00
49473;BME280;67434;50.956;6.918;2023-10-09T00:05:34;101634.78;;;15.96;96.85
49473;BME280;67434;50.956;6.918;2023-10-09T00:08:09;101639.69;;;15.94;97.04
49473;BME280;67434;50.956;6.918;2023-10-09T00:10:36;101637.50;;;15.91;96.88
49473;BME280;67434;50.956;6.918;2023-10-09T00:13:10;101628.50;;;15.90;96.48
49473;BME280;67434;50.956;6.918;2023-10-09T00:15:35;101627.69;;;15.90;96.71
49473;BME280;67434;50.956;6.918;2023-10-09T00:18:01;101622.25;;;15.90;96.34
49473;BME280;67434;50.956;6.918;2023-10-09T00:20:30;101634.50;;;15.87;96.25
49473;BME280;67434;50.956;6.918;2023-10-09T00:22:55;101623.59;;;15.82;96.46
49473;BME280;67434;50.956;6.918;2023-10-09T00:25:22;101622.22;;;15.80;96.42
49473;BME280;67434;50.956;6.918;2023-10-09T00:27:50;101629.59;;;15.74;96.80
49473;BME280;67434;50.956;6.918;2023-10-09T00:30:16;101623.03;;;15.65;97.15
49473;BME280;67434;50.956;6.918;2023-10-09T00:32:47;101624.91;;;15.59;97.19
49473;BME280;67434;50.956;6.918;2023-10-09T00:35:28;101627.03;;;15.52;96.66
49473;BME280;67434;50.956;6.918;2023-10-09T00:38:11;101624.84;;;15.44;97.58
49473;BME280;67434;50.956;6.918;2023-10-09T00:40:39;101625.38;;;15.41;97.38
49473;BME280;67434;50.956;6.918;2023-10-09T00:43:18;101618.84;;;15.47;97.11
49473;BME280;67434;50.956;6.918;2023-10-09T00:45:46;101619.13;;;15.46;97.21
49473;BME280;67434;50.956;6.918;2023-10-09T00:48:12;101616.94;;;15.43;96.96
49473;BME280;67434;50.956;6.918;2023-10-09T00:50:48;101613.09;;;15.39;96.47
49473;BME280;67434;50.956;6.918;2023-10-09T00:53:18;101610.63;;;15.32;96.58
49473;BME280;67434;50.956;6.918;2023-10-09T00:55:56;101609.00;;;15.31;97.17
49473;BME280;67434;50.956;6.918;2023-10-09T00:58:23;101606.00;;;15.32;96.90
49473;BME280;67434;50.956;6.918;2023-10-09T01:00:56;101604.38;;;15.37;96.29
49473;BME280;67434;50.956;6.918;2023-10-09T01:03:25;101601.94;;;15.40;96.28
49473;BME280;67434;50.956;6.918;2023-10-09T01:05:54;101603.81;;;15.24;97.22
49473;BME280;67434;50.956;6.918;2023-10-09T01:08:24;101590.41;;;15.18;97.70
49473;BME280;67434;50.956;6.918;2023-10-09T01:11:00;101595.84;;;15.18;97.37
49473;BME280;67434;50.956;6.918;2023-10-09T01:13:39;101590.41;;;15.23;96.90
49473;BME280;67434;50.956;6.918;2023-10-09T01:16:24;101589.31;;;15.19;97.53
49473;BME280;67434;50.956;6.918;2023-10-09T01:18:55;101589.06;;;15.20;97.75
49473;BME280;67434;50.956;6.918;2023-10-09T01:21:24;101592.56;;;15.16;97.84
49473;BME280;67434;50.956;6.918;2023-10-09T01:24:00;101592.03;;;15.19;97.55
49473;BME280;67434;50.956;6.918;2023-10-09T01:26:30;101588.78;;;15.22;97.67
49473;BME280;67434;50.956;6.918;2023-10-09T01:28:59;101578.47;;;15.29;96.86
49473;BME280;67434;50.956;6.918;2023-10-09T01:31:26;101575.50;;;15.30;96.39
49473;BME280;67434;50.956;6.918;2023-10-09T01:33:52;101563.22;;;15.33;96.60
49473;BME280;67434;50.956;6.918;2023-10-09T01:36:19;101570.31;;;15.34;96.45
49473;BME280;67434;50.956;6.918;2023-10-09T01:38:59;101561.03;;;15.30;96.94
49473;BME280;67434;50.956;6.918;2023-10-09T01:41:24;101555.06;;;15.28;96.83
49473;BME280;67434;50.956;6.918;2023-10-09T01:43:50;101545.53;;;15.36;96.58
49473;BME280;67434;50.956;6.918;2023-10-09T01:46:16;101535.44;;;15.36;96.68
49473;BME280;67434;50.956;6.918;2023-10-09T01:48:45;101537.09;;;15.37;96.60
49473;BME280;67434;50.956;6.918;2023-10-09T01:51:15;101542.53;;;15.42;96.36
49473;BME280;67434;50.956;6.918;2023-10-09T01:53:46;101543.63;;;15.41;96.49
49473;BME280;67434;50.956;6.918;2023-10-09T01:56:26;101546.34;;;15.36;96.58
49473;BME280;67434;50.956;6.918;2023-10-09T01:58:53;101554.25;;;15.38;96.59
49473;BME280;67434;50.956;6.918;2023-10-09T02:01:22;101562.44;;;15.38;96.46
49473;BME280;67434;50.956;6.918;2023-10-09T02:03:48;101555.88;;;15.39;96.22
49473;BME280;67434;50.956;6.918;2023-10-09T02:06:16;101552.63;;;15.37;96.34
49473;BME280;67434;50.956;6.918;2023-10-09T02:08:53;101553.97;;;15.39;96.08
49473;BME280;67434;50.956;6.918;2023-10-09T02:11:21;101550.44;;;15.44;95.91
49473;BME280;67434;50.956;6.918;2023-10-09T02:14:01;101545.00;;;15.44;95.60
49473;BME280;67434;50.956;6.918;2023-10-09T02:16:27;101546.38;;;15.46;95.69
49473;BME280;67434;50.956;6.918;2023-10-09T02:18:55;101546.38;;;15.46;95.42
49473;BME280;67434;50.956;6.918;2023-10-09T02:21:24;101548.53;;;15.44;95.70
49473;BME280;67434;50.956;6.918;2023-10-09T02:24:03;101563.25;;;15.38;96.00
49473;BME280;67434;50.956;6.918;2023-10-09T02:26:38;101557.25;;;15.46;95.87
49473;BME280;67434;50.956;6.918;2023-10-09T02:29:03;101565.44;;;15.46;96.13
49473;BME280;67434;50.956;6.918;2023-10-09T02:31:38;101571.72;;;15.52;96.04
49473;BME280;67434;50.956;6.918;2023-10-09T02:34:06;101573.88;;;15.50;95.53
49473;BME280;67434;50.956;6.918;2023-10-09T02:36:33;101564.34;;;15.47;95.99
49473;BME280;67434;50.956;6.918;2023-10-09T02:39:15;101563.25;;;15.48;95.69
49473;BME280;67434;50.956;6.918;2023-10-09T02:41:53;101557.25;;;15.46;95.73
49473;BME280;67434;50.956;6.918;2023-10-09T02:44:37;101550.72;;;15.42;95.64
49473;BME280;67434;50.956;6.918;2023-10-09T02:47:06;101558.34;;;15.40;95.78
49473;BME280;67434;50.956;6.918;2023-10-09T02:49:43;101555.34;;;15.42;95.21
49473;BME280;67434;50.956;6.918;2023-10-09T02:52:10;101549.09;;;15.46;94.45
49473;BME280;67434;50.956;6.918;2023-10-09T02:54:36;101550.44;;;15.44;94.62
49473;BME280;67434;50.956;6.918;2023-10-09T02:57:06;101545.28;;;15.42;94.72
49473;BME280;67434;50.956;6.918;2023-10-09T02:59:44;101542.00;;;15.45;95.20
49473;BME280;67434;50.956;6.918;2023-10-09T03:02:10;101543.09;;;15.44;94.92
49473;BME280;67434;50.956;6.918;2023-10-09T03:04:36;101538.44;;;15.40;95.01
49473;BME280;67434;50.956;6.918;2023-10-09T03:07:04;101539.53;;;15.39;94.67
49473;BME280;67434;50.956;6.918;2023-10-09T03:09:31;101540.09;;;15.41;94.92
49473;BME280;67434;50.956;6.918;2023-10-09T03:12:06;101547.72;;;15.44;95.41
49473;BME280;67434;50.956;6.918;2023-10-09T03:14:36;101548.53;;;15.44;95.36
49473;BME280;67434;50.956;6.918;2023-10-09T03:17:06;101550.72;;;15.47;94.80
49473;BME280;67434;50.956;6.918;2023-10-09T03:19:36;101541.72;;;15.42;95.04
49473;BME280;67434;50.956;6.918;2023-10-09T03:22:08;101547.44;;;15.45;94.32
49473;BME280;67434;50.956;6.918;2023-10-09T03:24:35;101537.66;;;15.49;93.91
49473;BME280;67434;50.956;6.918;2023-10-09T03:27:02;101533.56;;;15.52;93.89
49473;BME280;67434;50.956;6.918;2023-10-09T03:29:27;101547.19;;;15.47;94.06
49473;BME280;67434;50.956;6.918;2023-10-09T03:31:53;101542.81;;;15.46;94.75
49473;BME280;67434;50.956;6.918;2023-10-09T03:34:21;101541.72;;;15.47;94.75
49473;BME280;67434;50.956;6.918;2023-10-09T03:36:46;101541.72;;;15.47;94.86
49473;BME280;67434;50.956;6.918;2023-10-09T03:39:13;101539.00;;;15.42;95.27
49473;BME280;67434;50.956;6.918;2023-10-09T03:41:58;101538.47;;;15.45;94.98
49473;BME280;67434;50.956;6.918;2023-10-09T03:44:31;101534.91;;;15.49;94.84
49473;BME280;67434;50.956;6.918;2023-10-09T03:46:58;101533.84;;;15.45;95.37
49473;BME280;67434;50.956;6.918;2023-10-09T03:49:24;101529.47;;;15.44;95.31
49473;BME280;67434;50.956;6.918;2023-10-09T03:51:51;101533.53;;;15.37;95.95
49473;BME280;67434;50.956;6.918;2023-10-09T03:54:17;101539.81;;;15.42;95.64
49473;BME280;67434;50.956;6.918;2023-10-09T03:56:46;101534.91;;;15.39;95.95
49473;BME280;67434;50.956;6.918;2023-10-09T03:59:16;101531.09;;;15.40;95.97
49473;BME280;67434;50.956;6.918;2023-10-09T04:01:41;101535.19;;;15.43;96.00
49473;BME280;67434;50.956;6.918;2023-10-09T04:04:09;101528.94;;;15.47;95.74
49473;BME280;67434;50.956;6.918;2023-10-09T04:06:38;101518.03;;;15.52;95.19
49473;BME280;67434;50.956;6.918;2023-10-09T04:09:06;101524.84;;;15.50;95.36
49473;BME280;67434;50.956;6.918;2023-10-09T04:11:43;101521.84;;;15.51;95.28
49473;BME280;67434;50.956;6.918;2023-10-09T04:14:12;101524.56;;;15.56;95.13
49473;BME280;67434;50.956;6.918;2023-10-09T04:16:48;101518.31;;;15.51;94.94
49473;BME280;67434;50.956;6.918;2023-10-09T04:19:32;101506.31;;;15.57;95.13
49473;BME280;67434;50.956;6.918;2023-10-09T04:22:14;101504.94;;;15.54;95.24
49473;BME280;67434;50.956;6.918;2023-10-09T04:24:51;101499.50;;;15.49;95.38
49473;BME280;67434;50.956;6.918;2023-10-09T04:27:17;101500.31;;;15.50;95.28
49473;BME280;67434;50.956;6.918;2023-10-09T04:29:42;101508.50;;;15.50;94.91
49473;BME280;67434;50.956;6.918;2023-10-09T04:32:12;101511.50;;;15.48;95.19
49473;BME280;67434;50.956;6.918;2023-10-09T04:34:41;101516.94;;;15.53;94.73
49473;BME280;67434;50.956;6.918;2023-10-09T04:37:14;101516.13;;;15.53;94.48
49473;BME280;67434;50.956;6.918;2023-10-09T04:39:43;101511.50;;;15.53;95.29
49473;BME280;67434;50.956;6.918;2023-10-09T04:42:12;101508.81;;;15.58;94.12
49473;BME280;67434;50.956;6.918;2023-10-09T04:44:51;101505.81;;;15.60;94.18
49473;BME280;67434;50.956;6.918;2023-10-09T04:47:30;101497.91;;;15.58;94.20
49473;BME280;67434;50.956;6.918;2023-10-09T04:50:10;101503.09;;;15.65;93.90
49473;BME280;67434;50.956;6.918;2023-10-09T04:52:40;101511.81;;;15.62;93.73
49473;BME280;67434;50.956;6.918;2023-10-09T04:55:09;101504.16;;;15.59;93.86
49473;BME280;67434;50.956;6.918;2023-10-09T05:00:20;101500.31;;;15.55;94.09
49473;BME280;67434;50.956;6.918;2023-10-09T05:02:55;101493.56;;;15.62;93.76
49473;BME280;67434;50.956;6.918;2023-10-09T05:05:26;101503.38;;;15.63;93.68
49473;BME280;67434;50.956;6.918;2023-10-09T05:08:10;101511.28;;;15.65;93.87
49473;BME280;67434;50.956;6.918;2023-10-09T05:10:49;101512.38;;;15.74;93.81
49473;BME280;67434;50.956;6.918;2023-10-09T05:13:25;101496.00;;;15.74;93.08
49473;BME280;67434;50.956;6.918;2023-10-09T05:16:13;101497.38;;;15.72;93.32
49473;BME280;67434;50.956;6.918;2023-10-09T05:18:51;101489.75;;;15.69;93.24
49473;BME280;67434;50.956;6.918;2023-10-09T05:21:36;101494.38;;;15.68;93.22
49473;BME280;67434;50.956;6.918;2023-10-09T05:24:13;101489.22;;;15.61;93.36
49473;BME280;67434;50.956;6.918;2023-10-09T05:26:42;101485.66;;;15.61;93.34
49473;BME280;67434;50.956;6.918;2023-10-09T05:29:12;101486.47;;;15.61;93.55
49473;BME280;67434;50.956;6.918;2023-10-09T05:32:06;101488.38;;;15.66;92.80
49473;BME280;67434;50.956;6.918;2023-10-09T05:34:37;101488.66;;;15.70;92.98
49473;BME280;67434;50.956;6.918;2023-10-09T05:37:26;101497.38;;;15.72;92.54
49473;BME280;67434;50.956;6.918;2023-10-09T05:39:58;101493.28;;;15.69;92.45
49473;BME280;67434;50.956;6.918;2023-10-09T05:42:29;101486.75;;;15.65;92.68
49473;BME280;67434;50.956;6.918;2023-10-09T05:45:15;101486.47;;;15.67;92.85
49473;BME280;67434;50.956;6.918;2023-10-09T05:48:00;101486.75;;;15.65;92.75
49473;BME280;67434;50.956;6.918;2023-10-09T05:50:29;101483.75;;;15.67;92.77
49473;BME280;67434;50.956;6.918;2023-10-09T05:53:15;101502.84;;;15.72;92.63
49473;BME280;67434;50.956;6.918;2023-10-09T05:56:03;101501.75;;;15.73;92.16
49473;BME280;67434;50.956;6.918;2023-10-09T05:58:47;101502.28;;;15.75;92.15
49473;BME280;67434;50.956;6.918;2023-10-09T06:01:31;101510.47;;;15.75;92.07
49473;BME280;67434;50.956;6.918;2023-10-09T06:04:15;101511.00;;;15.77;91.73
49473;BME280;67434;50.956;6.918;2023-10-09T06:06:41;101508.00;;;15.78;91.70
49473;BME280;67434;50.956;6.918;2023-10-09T06:09:13;101505.28;;;15.78;91.47
49473;BME280;67434;50.956;6.918;2023-10-09T06:11:42;101509.91;;;15.78;91.54
49473;BME280;67434;50.956;6.918;2023-10-09T06:14:24;101496.53;;;15.86;91.21
49473;BME280;67434;50.956;6.918;2023-10-09T06:16:58;101509.09;;;15.87;91.78
49473;BME280;67434;50.956;6.918;2023-10-09T06:19:27;101523.00;;;15.91;91.79
49473;BME280;67434;50.956;6.918;2023-10-09T06:21:58;101528.44;;;15.96;91.06
49473;BME280;67434;50.956;6.918;2023-10-09T06:24:47;101523.56;;;16.03;91.01
49473;BME280;67434;50.956;6.918;2023-10-09T06:27:21;101527.38;;;16.02;91.30
49473;BME280;67434;50.956;6.918;2023-10-09T06:29:56;101526.28;;;16.03;91.07
49473;BME280;67434;50.956;6.918;2023-10-09T06:32:44;101531.19;;;16.11;90.83
49473;BME280;67434;50.956;6.918;2023-10-09T06:35:28;101533.09;;;16.06;90.58
49473;BME280;67434;50.956;6.918;2023-10-09T06:37:57;101534.19;;;16.10;90.09
49473;BME280;67434;50.956;6.918;2023-10-09T06:40:34;101536.09;;;16.09;90.25
49473;BME280;67434;50.956;6.918;2023-10-09T06:43:04;101540.44;;;16.10;90.19
49473;BME280;67434;50.956;6.918;2023-10-09T06:45:40;101550.53;;;16.20;89.62
49473;BME280;67434;50.956;6.918;2023-10-09T06:48:21;101560.06;;;16.27;89.59
49473;BME280;67434;50.956;6.918;2023-10-09T06:51:03;101570.97;;;16.27;89.79
49473;BME280;67434;50.956;6.918;2023-10-09T06:53:34;101568.25;;;16.38;90.25
49473;BME280;67434;50.956;6.918;2023-10-09T06:56:26;101570.41;;;16.46;90.07
49473;BME280;67434;50.956;6.918;2023-10-09T06:58:55;101576.69;;;16.51;89.14
49473;BME280;67434;50.956;6.918;2023-10-09T07:01:21;101577.22;;;16.53;88.53
49473;BME280;67434;50.956;6.918;2023-10-09T07:03:56;101579.13;;;16.58;87.57
49473;BME280;67434;50.956;6.918;2023-10-09T07:06:40;101591.94;;;16.57;87.36
49473;BME280;67434;50.956;6.918;2023-10-09T07:09:25;101594.13;;;16.61;87.83
49473;BME280;67434;50.956;6.918;2023-10-09T07:12:08;101596.31;;;16.58;87.47
49473;BME280;67434;50.956;6.918;2023-10-09T07:14:43;101600.41;;;16.61;87.89
49473;BME280;67434;50.956;6.918;2023-10-09T07:17:09;101592.22;;;16.61;88.12
49473;BME280;67434;50.956;6.918;2023-10-09T07:19:51;101596.31;;;16.69;87.68
49473;BME280;67434;50.956;6.918;2023-10-09T07:22:20;101594.94;;;16.71;87.97
49473;BME280;67434;50.956;6.918;2023-10-09T07:24:49;101598.25;;;16.73;87.75
49473;BME280;67434;50.956;6.918;2023-10-09T07:27:25;101599.31;;;16.82;87.27
49473;BME280;67434;50.956;6.918;2023-10-09T07:30:13;101602.28;;;16.91;86.94
49473;BME280;67434;50.956;6.918;2023-10-09T07:33:04;101606.09;;;16.95;85.69
49473;BME280;67434;50.956;6.918;2023-10-09T07:35:40;101595.94;;;17.06;85.17
49473;BME280;67434;50.956;6.918;2023-10-09T07:38:10;101592.94;;;17.12;84.49
49473;BME280;67434;50.956;6.918;2023-10-09T07:40:37;101599.44;;;17.22;84.08
49473;BME280;67434;50.956;6.918;2023-10-09T07:43:29;101591.16;;;17.37;83.45
49473;BME280;67434;50.956;6.918;2023-10-09T07:46:02;101597.13;;;17.44;84.09
49473;BME280;67434;50.956;6.918;2023-10-09T07:48:46;101599.03;;;17.43;83.44
49473;BME280;67434;50.956;6.918;2023-10-09T07:51:18;101599.56;;;17.45;84.01
49473;BME280;67434;50.956;6.918;2023-10-09T07:53:50;101612.44;;;17.50;83.63
49473;BME280;67434;50.956;6.918;2023-10-09T07:56:25;101615.38;;;17.59;82.57
49473;BME280;67434;50.956;6.918;2023-10-09T07:58:56;101612.34;;;17.60;82.58
49473;BME280;67434;50.956;6.918;2023-10-09T08:01:25;101610.41;;;17.66;82.78
49473;BME280;67434;50.956;6.918;2023-10-09T08:04:03;101620.84;;;17.59;81.86
49473;BME280;67434;50.956;6.918;2023-10-09T08:06:37;101613.75;;;17.58;82.13
49473;BME280;67434;50.956;6.918;2023-10-09T08:09:10;101623.88;;;17.57;81.47
49473;BME280;67434;50.956;6.918;2023-10-09T08:11:45;101622.16;;;17.66;81.20
49473;BME280;67434;50.956;6.918;2023-10-09T08:14:11;101614.28;;;17.60;81.64
49473;BME280;67434;50.956;6.918;2023-10-09T08:16:56;101611.50;;;17.65;81.22
49473;BME280;67434;50.956;6.918;2023-10-09T08:19:51;101605.47;;;17.73;80.79
49473;BME280;67434;50.956;6.918;2023-10-09T08:22:30;101599.66;;;17.79;81.00
49473;BME280;67434;50.956;6.918;2023-10-09T08:24:56;101605.13;;;17.85;80.57
49473;BME280;67434;50.956;6.918;2023-10-09T08:27:29;101599.91;;;17.88;80.07
49473;BME280;67434;50.956;6.918;2023-10-09T08:32:45;101599.25;;;18.01;79.66
49473;BME280;67434;50.956;6.918;2023-10-09T08:35:36;101587.44;;;18.06;79.68
49473;BME280;67434;50.956;6.918;2023-10-09T08:38:14;101585.28;;;18.03;79.52
49473;BME280;67434;50.956;6.918;2023-10-09T08:40:41;101587.72;;;18.04;79.41
49473;BME280;67434;50.956;6.918;2023-10-09T08:45:38;101570.69;;;18.12;79.42
49473;BME280;67434;50.956;6.918;2023-10-09T08:48:05;101591.13;;;18.25;79.50
49473;BME280;67434;50.956;6.918;2023-10-09T08:50:32;101613.56;;;18.27;79.15
49473;BME280;67434;50.956;6.918;2023-10-09T08:53:00;101630.25;;;18.26;77.69
49473;BME280;67434;50.956;6.918;2023-10-09T08:55:26;101653.75;;;18.32;77.71
49473;BME280;67434;50.956;6.918;2023-10-09T08:57:52;101652.59;;;18.38;77.26
49473;BME280;67434;50.956;6.918;2023-10-09T09:00:18;101644.34;;;18.43;77.62
49473;BME280;67434;50.956;6.918;2023-10-09T09:02:50;101636.03;;;18.53;77.75
49473;BME280;67434;50.956;6.918;2023-10-09T09:05:22;101628.06;;;18.62;77.13
49473;BME280;67434;50.956;6.918;2023-10-09T09:07:49;101641.34;;;18.73;77.01
49473;BME280;67434;50.956;6.918;2023-10-09T09:10:14;101619.78;;;18.67;77.46
49473;BME280;67434;50.956;6.918;2023-10-09T09:12:45;101608.47;;;18.73;77.54
49473;BME280;67434;50.956;6.918;2023-10-09T09:15:13;101607.03;;;18.81;77.32
49473;BME280;67434;50.956;6.918;2023-10-09T09:17:46;101564.53;;;18.84;76.31
49473;BME280;67434;50.956;6.918;2023-10-09T09:20:25;101547.44;;;18.92;76.28
49473;BME280;67434;50.956;6.918;2023-10-09T09:22:57;101576.88;;;18.81;74.91
49473;BME280;67434;50.956;6.918;2023-10-09T09:25:40;101560.09;;;18.88;74.58
49473;BME280;67434;50.956;6.918;2023-10-09T09:28:09;101557.00;;;18.94;75.17
49473;BME280;67434;50.956;6.918;2023-10-09T09:30:39;101550.97;;;18.97;75.30
49473;BME280;67434;50.956;6.918;2023-10-09T09:33:25;101545.56;;;19.11;74.90
49473;BME280;67434;50.956;6.918;2023-10-09T09:36:08;101558.59;;;19.19;73.70
49473;BME280;67434;50.956;6.918;2023-10-09T09:38:37;101536.31;;;19.26;74.88
49473;BME280;67434;50.956;6.918;2023-10-09T09:41:16;101530.53;;;19.27;74.46
49473;BME280;67434;50.956;6.918;2023-10-09T09:43:56;101533.19;;;19.32;73.15
49473;BME280;67434;50.956;6.918;2023-10-09T09:46:23;101527.72;;;19.32;73.69
49473;BME280;67434;50.956;6.918;2023-10-09T09:49:05;101524.41;;;19.35;73.18
49473;BME280;67434;50.956;6.918;2023-10-09T09:51:32;101533.75;;;19.34;72.96
49473;BME280;67434;50.956;6.918;2023-10-09T09:54:01;101509.38;;;19.33;71.68
49473;BME280;67434;50.956;6.918;2023-10-09T09:56:29;101533.66;;;19.40;71.94
49473;BME280;67434;50.956;6.918;2023-10-09T09:58:57;101514.00;;;19.51;71.82
49473;BME280;67434;50.956;6.918;2023-10-09T10:01:29;101535.91;;;19.56;70.84
49473;BME280;67434;50.956;6.918;2023-10-09T10:04:11;101529.94;;;19.68;71.22
49473;BME280;67434;50.956;6.918;2023-10-09T10:06:40;101518.63;;;19.75;70.67
49473;BME280;67434;50.956;6.918;2023-10-09T10:09:08;101524.16;;;19.88;70.68
49473;BME280;67434;50.956;6.918;2023-10-09T10:11:44;101521.75;;;20.01;69.32
49473;BME280;67434;50.956;6.918;2023-10-09T10:14:13;101517.28;;;20.05;69.14
49473;BME280;67434;50.956;6.918;2023-10-09T10:17:03;101521.41;;;20.21;67.44
49473;BME280;67434;50.956;6.918;2023-10-09T10:20:04;101521.41;;;20.35;67.32
49473;BME280;67434;50.956;6.918;2023-10-09T10:22:42;101520.16;;;20.46;67.13
49473;BME280;67434;50.956;6.918;2023-10-09T10:30:47;101514.31;;;20.75;65.64
49473;BME280;67434;50.956;6.918;2023-10-09T10:33:16;101509.34;;;20.77;65.02
49473;BME280;67434;50.956;6.918;2023-10-09T10:35:42;101506.78;;;20.80;64.94
49473;BME280;67434;50.956;6.918;2023-10-09T10:38:29;101510.03;;;20.96;66.01
49473;BME280;67434;50.956;6.918;2023-10-09T10:43:37;101515.75;;;21.00;64.28
49473;BME280;67434;50.956;6.918;2023-10-09T10:46:19;101517.06;;;21.02;63.94
49473;BME280;67434;50.956;6.918;2023-10-09T10:49:07;101517.97;;;20.98;63.90
49473;BME280;67434;50.956;6.918;2023-10-09T10:51:46;101515.63;;;21.05;63.72
49473;BME280;67434;50.956;6.918;2023-10-09T10:54:22;101523.75;;;21.10;63.57
49473;BME280;67434;50.956;6.918;2023-10-09T10:56:59;101517.88;;;21.03;63.05
49473;BME280;67434;50.956;6.918;2023-10-09T10:59:30;101519.06;;;21.10;62.35
49473;BME280;67434;50.956;6.918;2023-10-09T11:02:09;101532.19;;;21.13;62.55
49473;BME280;67434;50.956;6.918;2023-10-09T11:04:34;101532.63;;;21.20;63.02
49473;BME280;67434;50.956;6.918;2023-10-09T11:07:04;101535.47;;;21.29;64.24
49473;BME280;67434;50.956;6.918;2023-10-09T11:09:51;101531.97;;;21.37;63.02
49473;BME280;67434;50.956;6.918;2023-10-09T11:12:30;101538.59;;;21.36;62.65
49473;BME280;67434;50.956;6.918;2023-10-09T11:15:13;101538.28;;;21.38;60.04
49473;BME280;67434;50.956;6.918;2023-10-09T11:18:02;101540.41;;;21.41;58.97
49473;BME280;67434;50.956;6.918;2023-10-09T11:20:36;101540.31;;;21.46;59.33
49473;BME280;67434;50.956;6.918;2023-10-09T11:23:04;101538.88;;;21.48;59.11
49473;BME280;67434;50.956;6.918;2023-10-09T11:25:36;101539.69;;;21.49;58.71
49473;BME280;67434;50.956;6.918;2023-10-09T11:28:21;101535.19;;;21.53;57.65
49473;BME280;67434;50.956;6.918;2023-10-09T11:31:15;101538.69;;;21.45;57.44
49473;BME280;67434;50.956;6.918;2023-10-09T11:33:50;101533.38;;;21.48;57.56
49473;BME280;67434;50.956;6.918;2023-10-09T11:36:25;101519.59;;;21.48;57.48
49473;BME280;67434;50.956;6.918;2023-10-09T11:39:00;101528.69;;;21.49;57.30
49473;BME280;67434;50.956;6.918;2023-10-09T11:41:42;101537.53;;;21.60;58.08
49473;BME280;67434;50.956;6.918;2023-10-09T11:44:11;101524.78;;;21.64;57.88
49473;BME280;67434;50.956;6.918;2023-10-09T11:47:02;101524.78;;;21.64;57.75
49473;BME280;67434;50.956;6.918;2023-10-09T11:49:55;101518.66;;;21.53;56.81
49473;BME280;67434;50.956;6.918;2023-10-09T11:52:55;101527.84;;;21.48;57.20
49473;BME280;67434;50.956;6.918;2023-10-09T11:55:41;101527.50;;;21.64;56.99
49473;BME280;67434;50.956;6.918;2023-10-09T11:58:07;101524.78;;;21.64;58.11
49473;BME280;67434;50.956;6.918;2023-10-09T12:00:33;101519.13;;;21.69;58.10
49473;BME280;67434;50.956;6.918;2023-10-09T12:03:11;101530.78;;;21.66;59.14
49473;BME280;67434;50.956;6.918;2023-10-09T12:05:38;101530.13;;;21.69;58.76
49473;BME280;67434;50.956;6.918;2023-10-09T12:08:07;101522.44;;;21.79;58.94
49473;BME280;67434;50.956;6.918;2023-10-09T12:10:34;101517.44;;;21.81;57.66
49473;BME280;67434;50.956;6.918;2023-10-09T12:13:05;101522.25;;;21.76;57.04
49473;BME280;67434;50.956;6.918;2023-10-09T12:15:31;101521.44;;;21.75;56.96
49473;BME280;67434;50.956;6.918;2023-10-09T12:18:07;101517.19;;;21.69;57.86
49473;BME280;67434;50.956;6.918;2023-10-09T12:20:43;101517.97;;;21.47;58.30
49473;BME280;67434;50.956;6.918;2023-10-09T12:23:21;101522.97;;;21.45;59.75
49473;BME280;67434;50.956;6.918;2023-10-09T12:25:49;101526.03;;;21.44;60.15
49473;BME280;67434;50.956;6.918;2023-10-09T12:28:15;101528.25;;;21.56;60.71
49473;BME280;67434;50.956;6.918;2023-10-09T12:30:41;101522.63;;;21.61;60.19
49473;BME280;67434;50.956;6.918;2023-10-09T12:33:07;101520.06;;;21.64;60.25
49473;BME280;67434;50.956;6.918;2023-10-09T12:35:37;101523.66;;;21.51;59.45
49473;BME280;67434;50.956;6.918;2023-10-09T12:38:03;101532.75;;;21.51;59.69
49473;BME280;67434;50.956;6.918;2023-10-09T12:40:28;101523.84;;;21.54;60.17
49473;BME280;67434;50.956;6.918;2023-10-09T12:42:57;101512.75;;;21.60;60.45
49473;BME280;67434;50.956;6.918;2023-10-09T12:45:26;101507.16;;;21.51;60.88
49473;BME280;67434;50.956;6.918;2023-10-09T12:47:55;101503.72;;;21.45;60.91
49473;BME280;67434;50.956;6.918;2023-10-09T12:50:36;101498.28;;;21.54;61.30
49473;BME280;67434;50.956;6.918;2023-10-09T12:53:07;101503.91;;;21.49;59.77
49473;BME280;67434;50.956;6.918;2023-10-09T12:55:40;101499.31;;;21.58;60.23
49473;BME280;67434;50.956;6.918;2023-10-09T12:58:08;101510.53;;;21.48;59.95
49473;BME280;67434;50.956;6.918;2023-10-09T13:00:35;101504.47;;;21.37;59.49
49473;BME280;67434;50.956;6.918;2023-10-09T13:03:06;101508.53;;;21.40;60.32
49473;BME280;67434;50.956;6.918;2023-10-09T13:05:48;101503.16;;;21.35;59.94
49473;BME280;67434;50.956;6.918;2023-10-09T13:08:27;101497.72;;;21.43;59.39
49473;BME280;67434;50.956;6.918;2023-10-09T13:11:05;101502.47;;;21.29;60.02
49473;BME280;67434;50.956;6.918;2023-10-09T13:13:41;101505.78;;;21.40;59.92
49473;BME280;67434;50.956;6.918;2023-10-09T13:16:19;101510.78;;;21.38;59.73
49473;BME280;67434;50.956;6.918;2023-10-09T13:18:49;101505.28;;;21.38;60.29
49473;BME280;67434;50.956;6.918;2023-10-09T13:21:19;101516.97;;;21.43;60.33
49473;BME280;67434;50.956;6.918;2023-10-09T13:23:45;101518.66;;;21.31;60.54
49473;BME280;67434;50.956;6.918;2023-10-09T13:26:16;101516.59;;;21.36;60.52
49473;BME280;67434;50.956;6.918;2023-10-09T13:28:51;101509.78;;;21.34;59.77
49473;BME280;67434;50.956;6.918;2023-10-09T13:31:17;101509.34;;;21.40;59.43
49473;BME280;67434;50.956;6.918;2023-10-09T13:33:43;101506.75;;;21.21;59.21
49473;BME280;67434;50.956;6.918;2023-10-09T13:36:13;101502.88;;;21.22;60.14
49473;BME280;67434;50.956;6.918;2023-10-09T13:38:47;101507.88;;;21.20;59.63